sensor_id;sensor_type;location;lat;lon;timestamp;P1;durP1;ratioP1;P2;durP2;ratioP2
56481;SDS011;42384;45.186;19.958;2022-10-31T00:02:06;164.50;;;68.53;;
56481;SDS011;42384;45.186;19.958;2022-10-31T00:04:33;153.30;;;67.25;;
56481;SDS011;42384;45.186;19.958;2022-10-31T00:06:59;158.48;;;70.63;;
56481;SDS011;42384;45.186;19.958;2022-10-31T00:11:52;132.68;;;67.95;;
56481;SDS011;42384;45.186;19.958;2022-10-31T00:14:18;137.67;;;69.17;;
56481;SDS011;42384;45.186;19.958;2022-10-31T00:16:45;118.50;;;64.80;;
56481;SDS011;42384;45.186;19.958;2022-10-31T00:19:11;284.17;;;67.20;;
56481;SDS011;42384;45.186;19.958;2022-10-31T00:21:37;173.83;;;69.60;;
56481;SDS011;42384;45.186;19.958;2022-10-31T00:24:03;198.07;;;67.60;;
56481;SDS011;42384;45.186;19.958;2022-10-31T00:26:30;154.00;;;72.53;;
56481;SDS011;42384;45.186;19.958;2022-10-31T00:28:57;184.38;;;75.60;;
56481;SDS011;42384;45.186;19.958;2022-10-31T00:31:23;166.10;;;73.53;;
56481;SDS011;42384;45.186;19.958;2022-10-31T00:33:49;156.67;;;74.60;;
56481;SDS011;42384;45.186;19.958;2022-10-31T00:36:17;170.50;;;78.03;;
56481;SDS011;42384;45.186;19.958;2022-10-31T00:38:43;139.43;;;73.28;;
56481;SDS011;42384;45.186;19.958;2022-10-31T00:41:10;400.52;;;79.57;;
56481;SDS011;42384;45.186;19.958;2022-10-31T00:43:36;313.23;;;78.60;;
56481;SDS011;42384;45.186;19.958;2022-10-31T00:46:03;170.07;;;73.63;;
56481;SDS011;42384;45.186;19.958;2022-10-31T00:48:29;170.80;;;70.03;;
56481;SDS011;42384;45.186;19.958;2022-10-31T00:50:55;184.75;;;67.82;;
56481;SDS011;42384;45.186;19.958;2022-10-31T00:53:22;184.93;;;66.60;;
56481;SDS011;42384;45.186;19.958;2022-10-31T00:55:48;225.17;;;69.40;;
56481;SDS011;42384;45.186;19.958;2022-10-31T00:58:14;199.02;;;68.05;;
56481;SDS011;42384;45.186;19.958;2022-10-31T01:00:40;178.33;;;69.17;;
56481;SDS011;42384;45.186;19.958;2022-10-31T01:03:06;176.40;;;65.67;;
56481;SDS011;42384;45.186;19.958;2022-10-31T01:05:33;161.32;;;67.20;;
56481;SDS011;42384;45.186;19.958;2022-10-31T01:07:59;174.93;;;65.53;;
56481;SDS011;42384;45.186;19.958;2022-10-31T01:10:25;370.50;;;72.90;;
56481;SDS011;42384;45.186;19.958;2022-10-31T01:12:51;186.63;;;67.17;;
56481;SDS011;42384;45.186;19.958;2022-10-31T01:15:18;182.43;;;68.80;;
56481;SDS011;42384;45.186;19.958;2022-10-31T01:17:45;198.45;;;67.43;;
56481;SDS011;42384;45.186;19.958;2022-10-31T01:20:12;137.25;;;65.57;;
56481;SDS011;42384;45.186;19.958;2022-10-31T01:25:04;153.20;;;64.93;;
56481;SDS011;42384;45.186;19.958;2022-10-31T01:27:31;130.02;;;63.65;;
56481;SDS011;42384;45.186;19.958;2022-10-31T01:29:58;132.93;;;65.90;;
56481;SDS011;42384;45.186;19.958;2022-10-31T01:32:24;138.67;;;66.73;;
56481;SDS011;42384;45.186;19.958;2022-10-31T01:34:50;183.30;;;70.10;;
56481;SDS011;42384;45.186;19.958;2022-10-31T01:37:16;208.57;;;68.78;;
56481;SDS011;42384;45.186;19.958;2022-10-31T01:39:47;160.55;;;66.15;;
56481;SDS011;42384;45.186;19.958;2022-10-31T01:42:21;133.50;;;67.03;;
56481;SDS011;42384;45.186;19.958;2022-10-31T01:44:54;129.48;;;66.30;;
56481;SDS011;42384;45.186;19.958;2022-10-31T01:47:25;235.63;;;69.20;;
56481;SDS011;42384;45.186;19.958;2022-10-31T01:49:54;144.65;;;67.60;;
56481;SDS011;42384;45.186;19.958;2022-10-31T01:52:33;156.00;;;66.07;;
56481;SDS011;42384;45.186;19.958;2022-10-31T01:55:45;130.07;;;65.22;;
56481;SDS011;42384;45.186;19.958;2022-10-31T01:57:51;141.38;;;64.82;;
56481;SDS011;42384;45.186;19.958;2022-10-31T02:00:20;135.77;;;63.03;;
56481;SDS011;42384;45.186;19.958;2022-10-31T02:02:46;172.65;;;61.88;;
56481;SDS011;42384;45.186;19.958;2022-10-31T02:05:16;126.25;;;60.75;;
56481;SDS011;42384;45.186;19.958;2022-10-31T02:07:45;128.02;;;60.05;;
56481;SDS011;42384;45.186;19.958;2022-10-31T02:10:14;135.55;;;62.97;;
56481;SDS011;42384;45.186;19.958;2022-10-31T02:12:41;185.02;;;63.05;;
56481;SDS011;42384;45.186;19.958;2022-10-31T02:15:07;198.37;;;65.77;;
56481;SDS011;42384;45.186;19.958;2022-10-31T02:17:34;156.00;;;65.38;;
56481;SDS011;42384;45.186;19.958;2022-10-31T02:20:04;148.88;;;66.90;;
56481;SDS011;42384;45.186;19.958;2022-10-31T02:22:43;141.02;;;63.85;;
56481;SDS011;42384;45.186;19.958;2022-10-31T02:25:18;179.30;;;66.32;;
56481;SDS011;42384;45.186;19.958;2022-10-31T02:33:05;130.07;;;65.18;;
56481;SDS011;42384;45.186;19.958;2022-10-31T02:35:37;143.50;;;66.47;;
56481;SDS011;42384;45.186;19.958;2022-10-31T02:43:35;144.70;;;66.60;;
56481;SDS011;42384;45.186;19.958;2022-10-31T02:46:03;163.63;;;64.68;;
56481;SDS011;42384;45.186;19.958;2022-10-31T02:48:31;148.10;;;65.65;;
56481;SDS011;42384;45.186;19.958;2022-10-31T02:51:00;140.38;;;63.70;;
56481;SDS011;42384;45.186;19.958;2022-10-31T02:53:31;147.60;;;63.25;;
56481;SDS011;42384;45.186;19.958;2022-10-31T02:56:00;175.38;;;65.55;;
56481;SDS011;42384;45.186;19.958;2022-10-31T02:58:29;173.55;;;64.18;;
56481;SDS011;42384;45.186;19.958;2022-10-31T03:07:03;264.73;;;67.68;;
56481;SDS011;42384;45.186;19.958;2022-10-31T03:12:25;189.05;;;62.40;;
56481;SDS011;42384;45.186;19.958;2022-10-31T03:14:52;155.38;;;63.88;;
56481;SDS011;42384;45.186;19.958;2022-10-31T03:17:25;140.32;;;61.15;;
56481;SDS011;42384;45.186;19.958;2022-10-31T03:19:52;165.15;;;62.70;;
56481;SDS011;42384;45.186;19.958;2022-10-31T03:22:21;252.35;;;63.55;;
56481;SDS011;42384;45.186;19.958;2022-10-31T03:24:48;140.77;;;62.53;;
56481;SDS011;42384;45.186;19.958;2022-10-31T03:27:15;129.35;;;60.05;;
56481;SDS011;42384;45.186;19.958;2022-10-31T03:29:42;147.75;;;62.65;;
56481;SDS011;42384;45.186;19.958;2022-10-31T03:32:14;146.02;;;63.47;;
56481;SDS011;42384;45.186;19.958;2022-10-31T03:34:42;173.50;;;64.32;;
56481;SDS011;42384;45.186;19.958;2022-10-31T03:37:10;136.95;;;62.08;;
56481;SDS011;42384;45.186;19.958;2022-10-31T03:39:37;134.70;;;61.90;;
56481;SDS011;42384;45.186;19.958;2022-10-31T03:42:06;130.88;;;59.97;;
56481;SDS011;42384;45.186;19.958;2022-10-31T03:44:33;123.03;;;60.35;;
56481;SDS011;42384;45.186;19.958;2022-10-31T03:47:01;138.38;;;62.92;;
56481;SDS011;42384;45.186;19.958;2022-10-31T03:49:27;143.77;;;57.75;;
56481;SDS011;42384;45.186;19.958;2022-10-31T03:51:57;123.05;;;59.13;;
56481;SDS011;42384;45.186;19.958;2022-10-31T03:54:26;124.63;;;59.58;;
56481;SDS011;42384;45.186;19.958;2022-10-31T03:59:32;192.35;;;61.65;;
56481;SDS011;42384;45.186;19.958;2022-10-31T04:02:00;131.00;;;59.83;;
56481;SDS011;42384;45.186;19.958;2022-10-31T04:04:28;122.57;;;58.35;;
56481;SDS011;42384;45.186;19.958;2022-10-31T04:06:55;121.40;;;57.33;;
56481;SDS011;42384;45.186;19.958;2022-10-31T04:09:22;126.53;;;57.58;;
56481;SDS011;42384;45.186;19.958;2022-10-31T04:11:50;138.00;;;59.38;;
56481;SDS011;42384;45.186;19.958;2022-10-31T04:14:17;126.00;;;56.70;;
56481;SDS011;42384;45.186;19.958;2022-10-31T04:16:43;125.27;;;58.10;;
56481;SDS011;42384;45.186;19.958;2022-10-31T04:19:10;135.32;;;61.97;;
56481;SDS011;42384;45.186;19.958;2022-10-31T04:21:37;143.88;;;57.22;;
56481;SDS011;42384;45.186;19.958;2022-10-31T04:24:03;382.93;;;65.33;;
56481;SDS011;42384;45.186;19.958;2022-10-31T04:26:30;110.28;;;52.83;;
56481;SDS011;42384;45.186;19.958;2022-10-31T04:28:56;111.93;;;53.40;;
56481;SDS011;42384;45.186;19.958;2022-10-31T04:31:22;124.85;;;55.17;;
56481;SDS011;42384;45.186;19.958;2022-10-31T04:33:49;139.65;;;59.15;;
56481;SDS011;42384;45.186;19.958;2022-10-31T04:36:15;128.57;;;57.20;;
56481;SDS011;42384;45.186;19.958;2022-10-31T04:38:41;141.47;;;57.53;;
56481;SDS011;42384;45.186;19.958;2022-10-31T04:41:07;133.03;;;57.17;;
56481;SDS011;42384;45.186;19.958;2022-10-31T04:43:34;142.50;;;57.43;;
56481;SDS011;42384;45.186;19.958;2022-10-31T04:46:00;128.18;;;56.90;;
56481;SDS011;42384;45.186;19.958;2022-10-31T04:48:26;127.93;;;57.70;;
56481;SDS011;42384;45.186;19.958;2022-10-31T04:50:52;135.33;;;56.57;;
56481;SDS011;42384;45.186;19.958;2022-10-31T04:53:19;127.57;;;57.10;;
56481;SDS011;42384;45.186;19.958;2022-10-31T04:55:45;123.85;;;56.75;;
56481;SDS011;42384;45.186;19.958;2022-10-31T04:58:11;109.97;;;54.38;;
56481;SDS011;42384;45.186;19.958;2022-10-31T05:00:38;121.90;;;52.57;;
56481;SDS011;42384;45.186;19.958;2022-10-31T05:03:04;127.60;;;54.55;;
56481;SDS011;42384;45.186;19.958;2022-10-31T05:05:31;107.03;;;51.37;;
56481;SDS011;42384;45.186;19.958;2022-10-31T05:07:57;111.47;;;50.80;;
56481;SDS011;42384;45.186;19.958;2022-10-31T05:10:24;120.68;;;51.95;;
56481;SDS011;42384;45.186;19.958;2022-10-31T05:12:52;157.80;;;53.58;;
56481;SDS011;42384;45.186;19.958;2022-10-31T05:15:19;126.85;;;52.20;;
56481;SDS011;42384;45.186;19.958;2022-10-31T05:17:46;103.15;;;51.03;;
56481;SDS011;42384;45.186;19.958;2022-10-31T05:20:13;113.85;;;49.45;;
56481;SDS011;42384;45.186;19.958;2022-10-31T05:22:43;206.30;;;52.00;;
56481;SDS011;42384;45.186;19.958;2022-10-31T05:25:09;110.13;;;50.53;;
56481;SDS011;42384;45.186;19.958;2022-10-31T05:27:38;97.10;;;48.72;;
56481;SDS011;42384;45.186;19.958;2022-10-31T05:30:05;188.65;;;52.88;;
56481;SDS011;42384;45.186;19.958;2022-10-31T05:32:36;110.97;;;51.38;;
56481;SDS011;42384;45.186;19.958;2022-10-31T05:35:02;109.22;;;53.92;;
56481;SDS011;42384;45.186;19.958;2022-10-31T05:37:28;136.30;;;51.08;;
56481;SDS011;42384;45.186;19.958;2022-10-31T05:39:55;123.17;;;50.57;;
56481;SDS011;42384;45.186;19.958;2022-10-31T05:42:21;94.67;;;49.43;;
56481;SDS011;42384;45.186;19.958;2022-10-31T05:44:47;98.80;;;48.83;;
56481;SDS011;42384;45.186;19.958;2022-10-31T05:47:13;96.75;;;46.83;;
56481;SDS011;42384;45.186;19.958;2022-10-31T05:49:40;141.57;;;48.73;;
56481;SDS011;42384;45.186;19.958;2022-10-31T05:52:06;111.33;;;48.57;;
56481;SDS011;42384;45.186;19.958;2022-10-31T05:54:32;103.68;;;47.72;;
56481;SDS011;42384;45.186;19.958;2022-10-31T05:56:58;105.93;;;47.05;;
56481;SDS011;42384;45.186;19.958;2022-10-31T05:59:26;98.85;;;47.38;;
56481;SDS011;42384;45.186;19.958;2022-10-31T06:01:52;85.23;;;43.23;;
56481;SDS011;42384;45.186;19.958;2022-10-31T06:04:19;84.78;;;44.35;;
56481;SDS011;42384;45.186;19.958;2022-10-31T06:06:45;94.78;;;43.78;;
56481;SDS011;42384;45.186;19.958;2022-10-31T06:09:11;87.38;;;43.63;;
56481;SDS011;42384;45.186;19.958;2022-10-31T06:11:37;84.30;;;40.70;;
56481;SDS011;42384;45.186;19.958;2022-10-31T06:14:04;91.85;;;42.50;;
56481;SDS011;42384;45.186;19.958;2022-10-31T06:16:30;82.18;;;44.58;;
56481;SDS011;42384;45.186;19.958;2022-10-31T06:18:57;83.20;;;41.70;;
56481;SDS011;42384;45.186;19.958;2022-10-31T06:21:23;84.10;;;43.83;;
56481;SDS011;42384;45.186;19.958;2022-10-31T06:23:49;84.60;;;41.40;;
56481;SDS011;42384;45.186;19.958;2022-10-31T06:26:16;74.73;;;39.43;;
56481;SDS011;42384;45.186;19.958;2022-10-31T06:28:42;91.93;;;41.25;;
56481;SDS011;42384;45.186;19.958;2022-10-31T06:31:08;72.95;;;41.53;;
56481;SDS011;42384;45.186;19.958;2022-10-31T06:33:34;77.30;;;40.93;;
56481;SDS011;42384;45.186;19.958;2022-10-31T06:36:01;74.22;;;40.63;;
56481;SDS011;42384;45.186;19.958;2022-10-31T06:38:27;66.10;;;39.20;;
56481;SDS011;42384;45.186;19.958;2022-10-31T06:40:54;80.68;;;40.25;;
56481;SDS011;42384;45.186;19.958;2022-10-31T06:43:20;75.70;;;41.35;;
56481;SDS011;42384;45.186;19.958;2022-10-31T06:45:47;70.18;;;41.92;;
56481;SDS011;42384;45.186;19.958;2022-10-31T06:48:13;70.47;;;42.63;;
56481;SDS011;42384;45.186;19.958;2022-10-31T06:50:40;75.57;;;42.75;;
56481;SDS011;42384;45.186;19.958;2022-10-31T06:53:06;62.90;;;39.45;;
56481;SDS011;42384;45.186;19.958;2022-10-31T06:55:32;65.35;;;39.33;;
56481;SDS011;42384;45.186;19.958;2022-10-31T06:57:59;62.27;;;38.63;;
56481;SDS011;42384;45.186;19.958;2022-10-31T07:00:26;57.85;;;37.65;;
56481;SDS011;42384;45.186;19.958;2022-10-31T07:02:56;59.70;;;37.75;;
56481;SDS011;42384;45.186;19.958;2022-10-31T07:05:23;62.42;;;38.13;;
56481;SDS011;42384;45.186;19.958;2022-10-31T07:07:56;58.22;;;37.05;;
56481;SDS011;42384;45.186;19.958;2022-10-31T07:10:23;57.45;;;35.60;;
56481;SDS011;42384;45.186;19.958;2022-10-31T07:12:54;67.05;;;38.72;;
56481;SDS011;42384;45.186;19.958;2022-10-31T07:15:21;63.85;;;38.38;;
56481;SDS011;42384;45.186;19.958;2022-10-31T07:17:47;62.90;;;38.20;;
56481;SDS011;42384;45.186;19.958;2022-10-31T07:20:14;60.92;;;36.67;;
56481;SDS011;42384;45.186;19.958;2022-10-31T07:22:40;61.90;;;38.33;;
56481;SDS011;42384;45.186;19.958;2022-10-31T07:25:06;59.33;;;37.47;;
56481;SDS011;42384;45.186;19.958;2022-10-31T07:27:36;60.38;;;36.72;;
56481;SDS011;42384;45.186;19.958;2022-10-31T07:30:02;58.90;;;37.40;;
56481;SDS011;42384;45.186;19.958;2022-10-31T07:32:36;57.75;;;36.38;;
56481;SDS011;42384;45.186;19.958;2022-10-31T07:35:03;58.00;;;38.03;;
56481;SDS011;42384;45.186;19.958;2022-10-31T07:37:29;54.63;;;37.05;;
56481;SDS011;42384;45.186;19.958;2022-10-31T07:39:55;62.22;;;39.47;;
56481;SDS011;42384;45.186;19.958;2022-10-31T07:42:22;63.60;;;39.03;;
56481;SDS011;42384;45.186;19.958;2022-10-31T07:44:48;63.63;;;40.03;;
56481;SDS011;42384;45.186;19.958;2022-10-31T07:47:14;66.90;;;40.28;;
56481;SDS011;42384;45.186;19.958;2022-10-31T07:49:41;62.00;;;39.50;;
56481;SDS011;42384;45.186;19.958;2022-10-31T07:52:07;71.40;;;42.20;;
56481;SDS011;42384;45.186;19.958;2022-10-31T07:54:33;62.75;;;39.35;;
56481;SDS011;42384;45.186;19.958;2022-10-31T07:56:59;60.03;;;38.33;;
56481;SDS011;42384;45.186;19.958;2022-10-31T07:59:25;65.30;;;40.05;;
56481;SDS011;42384;45.186;19.958;2022-10-31T08:01:52;66.00;;;40.00;;
56481;SDS011;42384;45.186;19.958;2022-10-31T08:04:18;61.13;;;39.58;;
56481;SDS011;42384;45.186;19.958;2022-10-31T08:06:45;64.80;;;41.35;;
56481;SDS011;42384;45.186;19.958;2022-10-31T08:09:13;61.10;;;40.50;;
56481;SDS011;42384;45.186;19.958;2022-10-31T08:11:39;233.75;;;146.85;;
56481;SDS011;42384;45.186;19.958;2022-10-31T08:14:05;62.58;;;42.70;;
56481;SDS011;42384;45.186;19.958;2022-10-31T08:16:32;55.85;;;39.72;;
56481;SDS011;42384;45.186;19.958;2022-10-31T08:18:58;61.70;;;40.73;;
56481;SDS011;42384;45.186;19.958;2022-10-31T08:21:24;56.88;;;39.88;;
56481;SDS011;42384;45.186;19.958;2022-10-31T08:23:51;70.47;;;40.35;;
56481;SDS011;42384;45.186;19.958;2022-10-31T08:26:17;70.00;;;42.35;;
56481;SDS011;42384;45.186;19.958;2022-10-31T08:28:43;58.38;;;40.30;;
56481;SDS011;42384;45.186;19.958;2022-10-31T08:31:09;61.50;;;41.53;;
56481;SDS011;42384;45.186;19.958;2022-10-31T08:33:36;57.97;;;39.75;;
56481;SDS011;42384;45.186;19.958;2022-10-31T08:36:02;58.37;;;40.80;;
56481;SDS011;42384;45.186;19.958;2022-10-31T08:38:28;56.92;;;40.53;;
56481;SDS011;42384;45.186;19.958;2022-10-31T08:40:54;55.63;;;39.83;;
56481;SDS011;42384;45.186;19.958;2022-10-31T08:43:21;59.25;;;41.08;;
56481;SDS011;42384;45.186;19.958;2022-10-31T08:45:48;54.30;;;38.03;;
56481;SDS011;42384;45.186;19.958;2022-10-31T08:48:15;53.95;;;39.50;;
56481;SDS011;42384;45.186;19.958;2022-10-31T08:50:42;65.15;;;44.35;;
56481;SDS011;42384;45.186;19.958;2022-10-31T08:53:10;66.45;;;44.03;;
56481;SDS011;42384;45.186;19.958;2022-10-31T08:55:37;65.60;;;42.78;;
56481;SDS011;42384;45.186;19.958;2022-10-31T08:58:04;69.43;;;44.20;;
56481;SDS011;42384;45.186;19.958;2022-10-31T09:00:31;71.15;;;44.22;;
56481;SDS011;42384;45.186;19.958;2022-10-31T09:02:58;62.88;;;42.70;;
56481;SDS011;42384;45.186;19.958;2022-10-31T09:07:50;60.33;;;41.33;;
56481;SDS011;42384;45.186;19.958;2022-10-31T09:10:17;60.85;;;42.30;;
56481;SDS011;42384;45.186;19.958;2022-10-31T09:12:43;59.95;;;41.78;;
56481;SDS011;42384;45.186;19.958;2022-10-31T09:15:09;58.63;;;41.33;;
56481;SDS011;42384;45.186;19.958;2022-10-31T09:17:35;60.10;;;41.45;;
56481;SDS011;42384;45.186;19.958;2022-10-31T09:20:01;60.37;;;41.50;;
56481;SDS011;42384;45.186;19.958;2022-10-31T09:22:27;65.32;;;42.45;;
56481;SDS011;42384;45.186;19.958;2022-10-31T09:24:54;63.53;;;43.33;;
56481;SDS011;42384;45.186;19.958;2022-10-31T09:27:20;62.70;;;42.13;;
56481;SDS011;42384;45.186;19.958;2022-10-31T09:29:46;64.10;;;44.40;;
56481;SDS011;42384;45.186;19.958;2022-10-31T09:32:12;62.95;;;44.97;;
56481;SDS011;42384;45.186;19.958;2022-10-31T09:34:38;63.93;;;41.90;;
56481;SDS011;42384;45.186;19.958;2022-10-31T09:37:04;59.47;;;42.80;;
56481;SDS011;42384;45.186;19.958;2022-10-31T09:39:30;61.50;;;42.85;;
56481;SDS011;42384;45.186;19.958;2022-10-31T09:44:28;61.47;;;43.13;;
56481;SDS011;42384;45.186;19.958;2022-10-31T09:52:13;64.30;;;42.42;;
56481;SDS011;42384;45.186;19.958;2022-10-31T09:54:50;67.22;;;43.95;;
56481;SDS011;42384;45.186;19.958;2022-10-31T09:57:19;60.05;;;42.53;;
56481;SDS011;42384;45.186;19.958;2022-10-31T09:59:48;64.82;;;43.25;;
56481;SDS011;42384;45.186;19.958;2022-10-31T10:05:00;70.00;;;46.55;;
56481;SDS011;42384;45.186;19.958;2022-10-31T10:09:59;66.90;;;42.65;;
56481;SDS011;42384;45.186;19.958;2022-10-31T10:25:48;61.50;;;43.47;;
56481;SDS011;42384;45.186;19.958;2022-10-31T10:28:22;62.03;;;45.20;;
56481;SDS011;42384;45.186;19.958;2022-10-31T10:33:18;60.10;;;42.92;;
56481;SDS011;42384;45.186;19.958;2022-10-31T10:35:55;68.18;;;46.88;;
56481;SDS011;42384;45.186;19.958;2022-10-31T10:38:34;62.10;;;44.65;;
56481;SDS011;42384;45.186;19.958;2022-10-31T10:41:02;64.53;;;46.17;;
56481;SDS011;42384;45.186;19.958;2022-10-31T10:43:31;69.63;;;47.38;;
56481;SDS011;42384;45.186;19.958;2022-10-31T10:46:16;71.00;;;48.28;;
56481;SDS011;42384;45.186;19.958;2022-10-31T10:49:36;64.25;;;45.30;;
56481;SDS011;42384;45.186;19.958;2022-10-31T10:51:58;69.10;;;47.72;;
56481;SDS011;42384;45.186;19.958;2022-10-31T10:57:32;76.13;;;49.33;;
56481;SDS011;42384;45.186;19.958;2022-10-31T10:59:56;73.15;;;46.67;;
56481;SDS011;42384;45.186;19.958;2022-10-31T11:02:24;75.50;;;51.58;;
56481;SDS011;42384;45.186;19.958;2022-10-31T11:04:57;67.43;;;46.78;;
56481;SDS011;42384;45.186;19.958;2022-10-31T11:07:24;72.75;;;49.20;;
56481;SDS011;42384;45.186;19.958;2022-10-31T11:09:50;75.72;;;49.38;;
56481;SDS011;42384;45.186;19.958;2022-10-31T11:12:19;69.40;;;48.40;;
56481;SDS011;42384;45.186;19.958;2022-10-31T11:14:51;74.93;;;49.85;;
56481;SDS011;42384;45.186;19.958;2022-10-31T11:17:33;70.55;;;49.38;;
56481;SDS011;42384;45.186;19.958;2022-10-31T11:20:23;69.20;;;48.58;;
56481;SDS011;42384;45.186;19.958;2022-10-31T11:22:47;69.10;;;48.53;;
56481;SDS011;42384;45.186;19.958;2022-10-31T11:27:45;75.80;;;49.35;;
56481;SDS011;42384;45.186;19.958;2022-10-31T11:30:12;67.63;;;46.42;;
56481;SDS011;42384;45.186;19.958;2022-10-31T11:32:43;74.93;;;50.20;;
56481;SDS011;42384;45.186;19.958;2022-10-31T11:35:12;67.53;;;48.33;;
56481;SDS011;42384;45.186;19.958;2022-10-31T11:37:42;70.68;;;48.60;;
56481;SDS011;42384;45.186;19.958;2022-10-31T11:40:22;79.55;;;48.72;;
56481;SDS011;42384;45.186;19.958;2022-10-31T11:42:48;73.80;;;51.15;;
56481;SDS011;42384;45.186;19.958;2022-10-31T11:45:26;79.10;;;51.53;;
56481;SDS011;42384;45.186;19.958;2022-10-31T11:47:54;71.85;;;50.83;;
56481;SDS011;42384;45.186;19.958;2022-10-31T11:50:40;80.35;;;53.03;;
56481;SDS011;42384;45.186;19.958;2022-10-31T11:53:14;75.97;;;52.63;;
56481;SDS011;42384;45.186;19.958;2022-10-31T11:55:41;78.80;;;51.53;;
56481;SDS011;42384;45.186;19.958;2022-10-31T11:58:20;82.75;;;53.60;;
56481;SDS011;42384;45.186;19.958;2022-10-31T12:00:56;75.43;;;51.28;;
56481;SDS011;42384;45.186;19.958;2022-10-31T12:06:11;82.77;;;54.30;;
56481;SDS011;42384;45.186;19.958;2022-10-31T12:08:36;83.88;;;56.65;;
56481;SDS011;42384;45.186;19.958;2022-10-31T12:13:40;87.78;;;59.35;;
56481;SDS011;42384;45.186;19.958;2022-10-31T12:16:12;86.05;;;58.80;;
56481;SDS011;42384;45.186;19.958;2022-10-31T12:29:34;83.07;;;55.92;;
56481;SDS011;42384;45.186;19.958;2022-10-31T12:31:50;83.55;;;55.30;;
56481;SDS011;42384;45.186;19.958;2022-10-31T12:39:36;75.38;;;52.60;;
56481;SDS011;42384;45.186;19.958;2022-10-31T12:44:49;67.30;;;49.28;;
56481;SDS011;42384;45.186;19.958;2022-10-31T12:49:50;70.90;;;49.45;;
56481;SDS011;42384;45.186;19.958;2022-10-31T12:57:33;71.25;;;48.38;;
56481;SDS011;42384;45.186;19.958;2022-10-31T13:00:03;79.93;;;49.90;;
56481;SDS011;42384;45.186;19.958;2022-10-31T13:02:32;69.13;;;48.58;;
56481;SDS011;42384;45.186;19.958;2022-10-31T13:05:10;74.40;;;51.63;;
56481;SDS011;42384;45.186;19.958;2022-10-31T13:07:41;72.93;;;50.10;;
56481;SDS011;42384;45.186;19.958;2022-10-31T13:10:19;77.18;;;51.00;;
56481;SDS011;42384;45.186;19.958;2022-10-31T13:12:47;78.20;;;52.95;;
56481;SDS011;42384;45.186;19.958;2022-10-31T13:15:23;82.43;;;52.80;;
56481;SDS011;42384;45.186;19.958;2022-10-31T13:17:51;80.47;;;50.45;;
56481;SDS011;42384;45.186;19.958;2022-10-31T13:22:49;75.18;;;50.63;;
56481;SDS011;42384;45.186;19.958;2022-10-31T13:25:37;82.47;;;50.70;;
56481;SDS011;42384;45.186;19.958;2022-10-31T13:28:23;82.65;;;51.13;;
56481;SDS011;42384;45.186;19.958;2022-10-31T13:30:51;80.18;;;50.95;;
56481;SDS011;42384;45.186;19.958;2022-10-31T13:33:19;79.13;;;50.33;;
56481;SDS011;42384;45.186;19.958;2022-10-31T13:38:51;78.85;;;52.13;;
56481;SDS011;42384;45.186;19.958;2022-10-31T13:44:12;80.38;;;50.55;;
56481;SDS011;42384;45.186;19.958;2022-10-31T13:46:40;80.13;;;52.67;;
56481;SDS011;42384;45.186;19.958;2022-10-31T13:51:48;74.18;;;50.25;;
56481;SDS011;42384;45.186;19.958;2022-10-31T13:56:50;78.53;;;50.00;;
56481;SDS011;42384;45.186;19.958;2022-10-31T14:06:51;76.77;;;50.47;;
56481;SDS011;42384;45.186;19.958;2022-10-31T14:09:24;81.88;;;50.70;;
56481;SDS011;42384;45.186;19.958;2022-10-31T14:11:50;76.10;;;49.03;;
56481;SDS011;42384;45.186;19.958;2022-10-31T14:14:17;82.50;;;48.10;;
56481;SDS011;42384;45.186;19.958;2022-10-31T14:16:44;81.88;;;48.65;;
56481;SDS011;42384;45.186;19.958;2022-10-31T14:19:15;75.50;;;45.38;;
56481;SDS011;42384;45.186;19.958;2022-10-31T14:21:43;76.85;;;45.88;;
56481;SDS011;42384;45.186;19.958;2022-10-31T14:24:14;70.57;;;42.88;;
56481;SDS011;42384;45.186;19.958;2022-10-31T14:26:51;72.20;;;44.85;;
56481;SDS011;42384;45.186;19.958;2022-10-31T14:31:44;75.18;;;44.67;;
56481;SDS011;42384;45.186;19.958;2022-10-31T14:36:49;69.68;;;42.95;;
56481;SDS011;42384;45.186;19.958;2022-10-31T14:49:43;73.57;;;42.03;;
56481;SDS011;42384;45.186;19.958;2022-10-31T14:52:14;67.25;;;41.08;;
56481;SDS011;42384;45.186;19.958;2022-10-31T14:54:44;65.30;;;40.33;;
56481;SDS011;42384;45.186;19.958;2022-10-31T14:57:54;70.03;;;41.20;;
56481;SDS011;42384;45.186;19.958;2022-10-31T15:00:03;70.97;;;42.80;;
56481;SDS011;42384;45.186;19.958;2022-10-31T15:02:32;69.30;;;39.38;;
56481;SDS011;42384;45.186;19.958;2022-10-31T15:05:05;67.20;;;39.53;;
56481;SDS011;42384;45.186;19.958;2022-10-31T15:07:32;76.35;;;40.30;;
56481;SDS011;42384;45.186;19.958;2022-10-31T15:10:03;72.10;;;40.67;;
56481;SDS011;42384;45.186;19.958;2022-10-31T15:14:56;65.18;;;38.45;;
56481;SDS011;42384;45.186;19.958;2022-10-31T15:17:24;68.13;;;39.22;;
56481;SDS011;42384;45.186;19.958;2022-10-31T15:19:51;76.05;;;40.85;;
56481;SDS011;42384;45.186;19.958;2022-10-31T15:24:44;69.07;;;38.40;;
56481;SDS011;42384;45.186;19.958;2022-10-31T15:27:16;63.63;;;37.75;;
56481;SDS011;42384;45.186;19.958;2022-10-31T15:29:47;61.17;;;38.22;;
56481;SDS011;42384;45.186;19.958;2022-10-31T15:32:24;74.35;;;42.40;;
56481;SDS011;42384;45.186;19.958;2022-10-31T15:34:51;68.70;;;39.43;;
56481;SDS011;42384;45.186;19.958;2022-10-31T15:37:19;74.65;;;42.03;;
56481;SDS011;42384;45.186;19.958;2022-10-31T15:39:46;74.32;;;42.20;;
56481;SDS011;42384;45.186;19.958;2022-10-31T15:42:14;67.32;;;40.30;;
56481;SDS011;42384;45.186;19.958;2022-10-31T15:44:43;77.32;;;43.28;;
56481;SDS011;42384;45.186;19.958;2022-10-31T15:47:16;79.68;;;42.85;;
56481;SDS011;42384;45.186;19.958;2022-10-31T15:50:02;77.65;;;44.58;;
56481;SDS011;42384;45.186;19.958;2022-10-31T15:54:59;81.35;;;43.90;;
56481;SDS011;42384;45.186;19.958;2022-10-31T15:57:26;78.35;;;42.88;;
56481;SDS011;42384;45.186;19.958;2022-10-31T15:59:52;77.57;;;44.90;;
56481;SDS011;42384;45.186;19.958;2022-10-31T16:02:20;77.10;;;44.55;;
56481;SDS011;42384;45.186;19.958;2022-10-31T16:04:52;81.80;;;46.08;;
56481;SDS011;42384;45.186;19.958;2022-10-31T16:07:19;88.45;;;47.08;;
56481;SDS011;42384;45.186;19.958;2022-10-31T16:09:52;81.95;;;43.88;;
56481;SDS011;42384;45.186;19.958;2022-10-31T16:12:19;78.65;;;45.08;;
56481;SDS011;42384;45.186;19.958;2022-10-31T16:14:46;83.65;;;46.85;;
56481;SDS011;42384;45.186;19.958;2022-10-31T16:17:13;84.65;;;46.40;;
56481;SDS011;42384;45.186;19.958;2022-10-31T16:20:22;83.25;;;48.17;;
56481;SDS011;42384;45.186;19.958;2022-10-31T16:22:36;89.78;;;49.53;;
56481;SDS011;42384;45.186;19.958;2022-10-31T16:27:32;89.43;;;48.50;;
56481;SDS011;42384;45.186;19.958;2022-10-31T16:29:59;98.75;;;50.97;;
56481;SDS011;42384;45.186;19.958;2022-10-31T16:35:18;101.63;;;52.28;;
56481;SDS011;42384;45.186;19.958;2022-10-31T16:37:44;88.97;;;49.33;;